Time;durP1;ratioP1;P1;durP2;ratioP2;P2;SDS_P1;SDS_P2;PMS_P1;PMS_P2;Temp;Humidity;BMP_temperature;BMP_pressure;BME280_temperature;BME280_humidity;BME280_pressure;Samples;Min_cycle;Max_cycle;Signal;HPM_P1;HPM_P2
2022/01/02 00:00:02;;;;;;;18.52;10.63;;;;;;;10.69;66.56;95738.06;4946432;29;20036;-78
2022/01/02 00:02:28;;;;;;;16.67;9.75;;;;;;;10.70;66.24;95730.06;4965310;29;20192;-78
2022/01/02 00:04:58;;;;;;;13.55;10.63;;;;;;;10.70;66.17;95732.66;4909098;29;20075;-78
2022/01/02 00:07:23;;;;;;;13.10;10.07;;;;;;;10.71;65.90;95739.44;4916362;29;20050;-79
2022/01/02 00:09:52;;;;;;;16.50;10.32;;;;;;;10.72;66.25;95740.25;4920258;29;20040;-78
2022/01/02 00:12:22;;;;;;;17.50;10.88;;;;;;;10.73;66.11;95750.44;4919855;29;20048;-79
2022/01/02 00:14:48;;;;;;;10.60;8.93;;;;;;;10.73;65.88;95747.84;4919875;29;20028;-79
2022/01/02 00:17:17;;;;;;;13.23;9.93;;;;;;;10.76;65.70;95749.25;4934193;29;20046;-79
2022/01/02 00:19:46;;;;;;;16.05;10.30;;;;;;;10.81;65.66;95752.81;4920046;29;20090;-79
2022/01/02 00:22:16;;;;;;;12.95;10.00;;;;;;;10.84;65.54;95751.56;4918903;29;20086;-79
2022/01/02 00:24:45;;;;;;;16.58;10.43;;;;;;;10.87;65.38;95748.56;4920910;29;20042;-79
2022/01/02 00:27:11;;;;;;;11.55;9.13;;;;;;;10.82;65.05;95751.78;4934235;29;20510;-79
2022/01/02 00:29:40;;;;;;;12.10;10.15;;;;;;;10.78;65.30;95745.41;4933824;29;20035;-79
2022/01/02 00:32:07;;;;;;;14.00;10.82;;;;;;;10.80;65.47;95743.41;4919544;29;20673;-79
2022/01/02 00:34:34;;;;;;;16.80;9.32;;;;;;;10.77;65.76;95749.03;4931327;29;20039;-79
2022/01/02 00:37:00;;;;;;;15.25;11.00;;;;;;;10.80;65.46;95743.41;4948797;29;20543;-79
2022/01/02 00:39:25;;;;;;;10.98;8.93;;;;;;;10.78;65.47;95742.81;4917410;29;20128;-79
2022/01/02 00:42:05;;;;;;;15.55;10.13;;;;;;;10.78;65.76;95737.63;4914755;29;20032;-79
2022/01/02 00:44:57;;;;;;;15.85;10.68;;;;;;;10.79;65.74;95741.81;4920468;29;20059;-80
2022/01/02 00:47:31;;;;;;;14.15;10.68;;;;;;;10.80;65.51;95742.59;4932209;29;20054;-78
2022/01/02 00:50:11;;;;;;;11.80;10.13;;;;;;;10.79;65.64;95736.59;4932022;29;20530;-80
2022/01/02 00:52:45;;;;;;;14.13;9.63;;;;;;;10.79;65.29;95741.81;4902319;29;20079;-79
2022/01/02 00:55:21;;;;;;;13.90;11.10;;;;;;;10.76;65.55;95741.44;4935517;29;20063;-79
2022/01/02 00:57:55;;;;;;;13.60;10.70;;;;;;;10.74;65.64;95744.25;4950959;29;20047;-79
2022/01/02 01:00:21;;;;;;;10.77;9.45;;;;;;;10.75;65.40;95739.84;4933978;29;20047;-79
2022/01/02 01:02:46;;;;;;;10.77;8.90;;;;;;;10.75;65.57;95738.03;4931790;29;20050;-79
2022/01/02 01:05:14;;;;;;;12.25;9.30;;;;;;;10.78;65.35;95745.41;4950379;29;20052;-79
2022/01/02 01:07:40;;;;;;;13.98;9.70;;;;;;;10.78;65.16;95745.41;4933790;29;20071;-79
2022/01/02 01:10:08;;;;;;;15.95;9.73;;;;;;;10.76;65.40;95744.03;4933825;29;20042;-79
2022/01/02 01:12:33;;;;;;;14.57;10.13;;;;;;;10.81;65.59;95752.00;4934061;23;20892;-82
2022/01/02 01:15:00;;;;;;;15.18;10.77;;;;;;;10.81;65.52;95752.81;4932636;29;20060;-79
2022/01/02 01:17:26;;;;;;;11.30;9.48;;;;;;;10.83;65.45;95761.19;4931900;29;20048;-79
2022/01/02 01:19:53;;;;;;;11.05;9.07;;;;;;;10.89;65.58;95761.34;4935200;29;20483;-78
2022/01/02 01:22:18;;;;;;;14.43;8.50;;;;;;;10.95;64.97;95761.31;4917359;29;20094;-79
2022/01/02 01:24:44;;;;;;;14.95;9.70;;;;;;;11.00;64.30;95758.88;4932507;29;20035;-79
2022/01/02 01:27:09;;;;;;;12.48;9.57;;;;;;;10.98;64.78;95752.28;4949779;29;20043;-80
2022/01/02 01:29:35;;;;;;;12.95;9.70;;;;;;;11.01;64.67;95749.25;4949194;29;20039;-79
2022/01/02 01:32:02;;;;;;;15.80;11.25;;;;;;;11.02;64.40;95756.06;4951410;29;20056;-78
2022/01/02 01:34:28;;;;;;;13.80;10.75;;;;;;;11.07;64.45;95748.44;4932937;29;20031;-79
2022/01/02 01:36:56;;;;;;;13.88;9.68;;;;;;;11.09;63.88;95749.03;4949854;29;20035;-78
2022/01/02 01:39:21;;;;;;;11.75;9.00;;;;;;;11.11;63.27;95749.59;4950624;29;20035;-79
2022/01/02 01:41:48;;;;;;;10.65;8.63;;;;;;;11.08;63.37;95744.81;4914608;29;20070;-79
2022/01/02 01:46:39;;;;;;;11.52;9.25;;;;;;;11.09;63.44;95751.63;4916412;29;20047;-79
2022/01/02 01:49:18;;;;;;;12.30;9.82;;;;;;;11.13;63.33;95758.00;4948690;29;20032;-81
2022/01/02 01:51:44;;;;;;;13.98;11.07;;;;;;;11.14;63.46;95751.78;4952714;29;20031;-80
2022/01/02 01:54:09;;;;;;;12.32;10.05;;;;;;;11.15;62.85;95755.19;4936691;23;20047;-80
2022/01/02 01:56:38;;;;;;;9.75;8.73;;;;;;;11.13;63.07;95747.59;4932508;23;20089;-80
2022/01/02 01:59:04;;;;;;;14.88;9.20;;;;;;;11.15;63.51;95750.78;4912285;29;20396;-80
2022/01/02 02:01:29;;;;;;;9.77;7.93;;;;;;;11.16;63.39;95748.97;4918229;29;20060;-80
2022/01/02 02:03:56;;;;;;;8.75;7.50;;;;;;;11.11;63.43;95742.59;4898341;29;20081;-80
2022/01/02 02:06:21;;;;;;;10.25;8.20;;;;;;;11.11;63.38;95744.41;4880307;29;20111;-80
2022/01/02 02:08:47;;;;;;;14.07;8.90;;;;;;;11.11;63.21;95739.19;4910741;29;20401;-80
2022/01/02 02:11:12;;;;;;;10.15;7.95;;;;;;;11.05;63.58;95745.22;4913311;29;20095;-79
2022/01/02 02:13:38;;;;;;;9.18;7.78;;;;;;;11.01;63.51;95739.66;4892185;29;20044;-79
2022/01/02 02:16:04;;;;;;;9.32;7.75;;;;;;;10.98;63.85;95734.88;4878334;29;20048;-80
2022/01/02 02:18:34;;;;;;;9.02;7.70;;;;;;;10.96;64.06;95744.69;4878865;29;20047;-80
2022/01/02 02:21:00;;;;;;;8.80;7.88;;;;;;;10.95;63.62;95740.50;4907331;29;20540;-79
2022/01/02 02:23:26;;;;;;;11.48;7.85;;;;;;;10.96;63.45;95741.31;5056165;23;20113;-79
2022/01/02 02:25:51;;;;;;;16.45;8.95;;;;;;;10.97;64.10;95742.91;4940563;29;20062;-79
2022/01/02 02:28:25;;;;;;;11.55;9.02;;;;;;;10.95;64.18;95744.91;4928636;29;20039;-80
2022/01/02 02:30:51;;;;;;;9.65;8.10;;;;;;;10.98;63.93;95744.50;4927774;29;20036;-79
2022/01/02 02:33:17;;;;;;;11.10;7.85;;;;;;;11.03;63.46;95752.44;4945590;29;20063;-79
2022/01/02 02:35:44;;;;;;;8.95;8.05;;;;;;;11.08;63.18;95739.63;4956759;23;20052;-78
2022/01/02 02:38:12;;;;;;;9.02;8.05;;;;;;;11.11;62.92;95739.19;4942731;29;20564;-79
2022/01/02 02:40:39;;;;;;;10.63;7.85;;;;;;;11.05;63.11;95745.22;4946108;29;20046;-77
2022/01/02 02:51:12;;;;;;;10.77;8.27;;;;;;;10.87;64.00;95743.34;4932904;29;20040;-81
2022/01/02 02:53:43;;;;;;;10.57;6.97;;;;;;;10.83;63.82;95744.78;4947855;29;20398;-80
2022/01/02 02:56:16;;;;;;;15.45;7.05;;;;;;;10.73;64.51;95750.44;4951089;29;20099;-80
2022/01/02 02:58:49;;;;;;;12.25;7.32;;;;;;;10.64;64.66;95741.31;4951115;29;20138;-80
2022/01/02 03:01:17;;;;;;;9.40;7.65;;;;;;;10.58;64.59;95749.94;4953650;29;20051;-80
2022/01/02 03:03:42;;;;;;;9.68;7.78;;;;;;;10.51;65.49;95760.38;4958393;29;20039;-79
2022/01/02 03:06:08;;;;;;;12.10;8.23;;;;;;;10.49;65.13;95751.19;4956940;29;20039;-80
2022/01/02 03:08:34;;;;;;;10.60;7.95;;;;;;;10.51;65.11;95757.75;4957680;29;20035;-80
2022/01/02 03:10:59;;;;;;;11.85;8.23;;;;;;;10.51;65.26;95767.38;4940669;28;20039;-81
2022/01/02 03:13:25;;;;;;;9.13;8.13;;;;;;;10.52;64.91;95758.56;4921643;29;20035;-80
2022/01/02 03:15:50;;;;;;;10.18;8.65;;;;;;;10.55;64.91;95765.16;4959110;29;20094;-81
2022/01/02 03:18:17;;;;;;;11.43;9.43;;;;;;;10.50;65.20;95760.56;4950792;23;20496;31
2022/01/02 03:20:42;;;;;;;9.85;8.63;;;;;;;10.62;64.79;95766.72;4908219;29;20061;-80
2022/01/02 03:23:08;;;;;;;9.63;8.65;;;;;;;10.64;65.03;95769.91;4896091;29;20055;-80
2022/01/02 03:25:33;;;;;;;9.60;8.65;;;;;;;10.63;64.89;95763.13;4901042;29;20572;-80
2022/01/02 03:27:59;;;;;;;12.52;9.38;;;;;;;10.68;64.91;95768.47;4914085;29;20040;-80
2022/01/02 03:30:24;;;;;;;13.10;9.60;;;;;;;10.70;64.74;95773.47;4957559;23;20055;-78
2022/01/02 03:32:50;;;;;;;12.05;9.43;;;;;;;10.68;64.98;95771.09;4957675;29;20063;-80
2022/01/02 03:35:15;;;;;;;13.45;10.13;;;;;;;10.70;64.65;95763.88;4937958;29;20046;-78
2022/01/02 03:37:41;;;;;;;12.45;9.40;;;;;;;10.70;64.83;95763.88;4967622;29;20040;-78
2022/01/02 03:40:07;;;;;;;12.63;9.07;;;;;;;10.70;64.54;95769.06;4949838;29;20063;-79
2022/01/02 03:42:34;;;;;;;12.93;8.90;;;;;;;10.74;65.05;95772.88;4940494;29;20046;-79
2022/01/02 03:45:01;;;;;;;13.93;9.23;;;;;;;10.76;64.58;95770.06;4950416;29;20599;-80
2022/01/02 03:47:27;;;;;;;9.68;7.85;;;;;;;10.80;64.28;95766.81;4949630;29;20411;-80
2022/01/02 03:49:52;;;;;;;11.80;9.55;;;;;;;10.82;64.20;95772.59;4949365;29;20031;-80
2022/01/02 03:52:18;;;;;;;10.95;8.40;;;;;;;10.87;63.63;95769.38;4953884;23;20040;-80
2022/01/02 03:54:43;;;;;;;12.63;8.02;;;;;;;10.91;63.68;95760.16;4942559;29;20099;-80
2022/01/02 03:57:08;;;;;;;12.07;8.27;;;;;;;10.96;63.47;95768.13;4925803;29;20129;-80
2022/01/02 03:59:34;;;;;;;11.52;8.75;;;;;;;10.96;63.33;95769.94;4942677;29;20042;-80
2022/01/02 04:02:00;;;;;;;11.65;9.15;;;;;;;11.01;63.55;95770.09;4943225;29;20044;-80
2022/01/02 04:04:28;;;;;;;12.35;9.20;;;;;;;11.03;63.76;95765.47;4941988;29;20040;-80
2022/01/02 04:06:54;;;;;;;10.80;7.78;;;;;;;10.95;63.82;95776.16;4942657;29;20039;-80
2022/01/02 04:09:22;;;;;;;8.95;7.93;;;;;;;10.94;63.57;95779.75;4942163;29;20095;-80
2022/01/02 04:11:47;;;;;;;12.05;8.27;;;;;;;10.79;64.60;95773.03;4909704;29;20031;-80
2022/01/02 04:14:13;;;;;;;8.88;7.70;;;;;;;10.77;64.87;95790.66;4939473;29;20102;-80
2022/01/02 04:16:38;;;;;;;12.32;7.60;;;;;;;10.75;64.67;95787.47;4941878;29;20038;-80
2022/01/02 04:19:04;;;;;;;9.63;8.32;;;;;;;10.68;65.09;95791.88;4942217;29;20095;-80
2022/01/02 04:21:29;;;;;;;13.32;7.93;;;;;;;10.65;64.76;95789.72;4940790;29;20043;-79
2022/01/02 04:23:55;;;;;;;10.82;8.02;;;;;;;10.62;65.66;95792.72;4942183;29;20040;-79
2022/01/02 04:26:20;;;;;;;11.38;8.75;;;;;;;10.64;65.11;95795.91;4924864;29;20032;-80
2022/01/02 04:28:46;;;;;;;11.00;8.77;;;;;;;10.62;65.04;95795.34;4924092;29;20038;-79
2022/01/02 04:31:13;;;;;;;11.05;9.02;;;;;;;10.61;65.41;95793.75;4941160;29;20032;-80
2022/01/02 04:33:42;;;;;;;13.27;9.02;;;;;;;10.62;65.67;95797.94;4925192;29;20040;-80
2022/01/02 04:36:07;;;;;;;10.30;9.07;;;;;;;10.63;65.28;95799.53;4925245;29;20036;-80
2022/01/02 04:38:33;;;;;;;12.45;9.90;;;;;;;10.64;65.26;95795.13;4923760;29;20043;-79
2022/01/02 04:40:59;;;;;;;12.05;9.82;;;;;;;10.65;65.26;95796.72;4908735;29;20038;-80
2022/01/02 04:43:24;;;;;;;12.05;9.63;;;;;;;10.63;64.68;95789.13;4909142;29;20146;-79
2022/01/02 04:45:50;;;;;;;13.60;9.95;;;;;;;10.68;64.76;95784.09;4941996;29;20040;-78
2022/01/02 04:48:15;;;;;;;14.13;9.93;;;;;;;10.69;64.62;95792.69;4923844;29;20043;-79
2022/01/02 04:50:40;;;;;;;12.55;9.70;;;;;;;10.63;65.21;95796.94;4941720;29;20059;-79
2022/01/02 04:53:06;;;;;;;18.63;9.50;;;;;;;10.63;64.93;95809.94;4983198;23;20024;-80
2022/01/02 04:55:31;;;;;;;16.55;11.15;;;;;;;10.61;65.49;95800.75;4994483;23;20048;-80
2022/01/02 04:57:57;;;;;;;26.92;15.75;;;;;;;10.58;65.38;95801.16;5078176;23;20051;-81
2022/01/02 05:00:30;;;;;;;26.23;15.05;;;;;;;10.56;65.80;95806.53;4932123;29;20040;-80
2022/01/02 05:02:55;;;;;;;23.85;14.05;;;;;;;10.53;65.63;95804.38;4889202;29;20048;-80
2022/01/02 05:05:21;;;;;;;28.00;17.30;;;;;;;10.53;65.38;95799.16;5042275;23;20058;-79
2022/01/02 05:07:46;;;;;;;15.13;10.95;;;;;;;10.52;65.77;95797.56;4945034;29;20114;-80
2022/01/02 05:10:12;;;;;;;13.25;9.93;;;;;;;10.54;66.06;95800.75;4932862;29;20039;-80
2022/01/02 05:12:37;;;;;;;15.85;12.20;;;;;;;10.55;65.27;95793.75;4950209;29;20035;-80
2022/01/02 05:15:03;;;;;;;12.48;9.88;;;;;;;10.54;65.49;95798.16;4951019;29;20479;-80
2022/01/02 05:17:28;;;;;;;13.68;10.07;;;;;;;10.56;65.74;95803.94;4931235;29;20069;-80
2022/01/02 05:19:56;;;;;;;9.63;8.63;;;;;;;10.52;65.87;95797.56;4932989;29;20135;-80
2022/01/02 05:22:22;;;;;;;11.43;8.82;;;;;;;10.52;65.30;95800.16;4931749;29;20035;-80
2022/01/02 05:24:47;;;;;;;11.55;9.93;;;;;;;10.52;65.58;95802.78;4948565;23;20063;-79
2022/01/02 05:27:13;;;;;;;11.80;9.77;;;;;;;10.49;65.79;95805.78;4983179;23;20051;-79
2022/01/02 05:29:38;;;;;;;13.95;10.10;;;;;;;10.45;65.49;95802.00;4941126;29;20095;-79
2022/01/02 05:32:04;;;;;;;11.63;9.00;;;;;;;10.42;65.60;95803.22;4923852;29;20047;-79
2022/01/02 05:34:54;;;;;;;10.38;8.95;;;;;;;10.42;66.42;95810.22;4923206;29;20043;-80
2022/01/02 05:37:19;;;;;;;14.45;11.43;;;;;;;10.40;65.66;95815.59;4941615;29;20042;-79
2022/01/02 05:39:45;;;;;;;21.40;14.45;;;;;;;10.37;66.64;95810.03;4941341;29;20044;-80
2022/01/02 05:42:16;;;;;;;14.77;11.10;;;;;;;10.38;66.21;95809.03;4923929;29;20496;-79
2022/01/02 05:44:42;;;;;;;16.98;12.50;;;;;;;10.39;66.08;95814.00;4901239;29;20491;-80
2022/01/02 05:47:07;;;;;;;10.38;8.35;;;;;;;10.42;65.97;95815.44;4902899;29;20515;-80
2022/01/02 05:49:33;;;;;;;9.38;8.38;;;;;;;10.47;65.86;95831.22;4901835;29;20037;-80
2022/01/02 05:51:58;;;;;;;10.43;7.95;;;;;;;10.47;66.13;95826.00;4877445;29;20409;-79
2022/01/02 05:54:24;;;;;;;12.55;8.60;;;;;;;10.51;65.97;95830.56;4892191;29;20425;-79
2022/01/02 05:56:50;;;;;;;10.60;8.98;;;;;;;10.55;66.17;95820.56;4903182;29;20043;-81
2022/01/02 05:59:16;;;;;;;9.18;8.05;;;;;;;10.53;65.65;95814.75;4902664;29;20110;-79
2022/01/02 06:01:41;;;;;;;18.50;10.13;;;;;;;10.55;65.35;95825.75;4939662;24;20504;-79
2022/01/02 06:04:07;;;;;;;12.43;8.38;;;;;;;10.58;65.62;95827.19;4940277;29;20472;-79
2022/01/02 06:06:32;;;;;;;11.52;9.68;;;;;;;10.60;65.18;95825.97;4938712;29;20036;-80
2022/01/02 06:08:58;;;;;;;14.07;10.13;;;;;;;10.59;65.43;95829.56;4956165;23;20136;-79
2022/01/02 06:11:24;;;;;;;13.55;8.70;;;;;;;10.61;65.28;95830.16;4939392;29;20036;-79
2022/01/02 06:13:50;;;;;;;20.42;11.27;;;;;;;10.64;65.00;95829.75;4946140;29;20054;-79
2022/01/02 06:16:15;;;;;;;18.10;11.98;;;;;;;10.65;65.44;95828.72;4951086;29;20056;-79
2022/01/02 06:18:41;;;;;;;15.55;11.10;;;;;;;10.72;65.10;95839.09;4934545;29;20039;-79
2022/01/02 06:21:06;;;;;;;12.23;9.50;;;;;;;10.74;64.51;95843.09;4936262;29;20050;-79
2022/01/02 06:23:31;;;;;;;10.85;9.00;;;;;;;10.80;64.24;95849.28;4923914;23;20040;-79
2022/01/02 06:25:57;;;;;;;8.05;7.25;;;;;;;10.83;64.17;95844.44;4910192;29;20044;-79
2022/01/02 06:28:22;;;;;;;10.27;6.75;;;;;;;10.82;63.70;95855.88;4922243;29;20095;-79
2022/01/02 06:30:48;;;;;;;10.27;7.35;;;;;;;10.81;63.51;95851.66;4896487;29;20116;-78
2022/01/02 06:33:16;;;;;;;16.23;10.52;;;;;;;10.86;63.58;95860.66;4897383;29;20036;-79
2022/01/02 06:35:44;;;;;;;13.63;10.00;;;;;;;10.88;63.47;95856.03;4941591;23;20492;-79
2022/01/02 06:38:14;;;;;;;11.75;9.63;;;;;;;10.84;63.41;95860.84;4939142;29;20047;-79
2022/01/02 06:40:40;;;;;;;22.20;13.77;;;;;;;10.87;63.53;95857.84;4939525;29;20039;-79
2022/01/02 06:43:05;;;;;;;21.55;13.60;;;;;;;10.86;63.55;95856.25;4938983;29;20043;-79
2022/01/02 06:45:31;;;;;;;16.23;11.95;;;;;;;10.85;63.51;95856.44;4943175;29;20040;-77
2022/01/02 06:47:56;;;;;;;17.42;10.30;;;;;;;10.86;63.58;95866.66;4955724;29;20054;-78
2022/01/02 06:50:21;;;;;;;11.05;8.98;;;;;;;10.92;63.43;95868.44;4955847;29;20034;-78
2022/01/02 06:52:47;;;;;;;11.15;9.13;;;;;;;10.93;63.99;95864.84;4946668;29;20075;-78
2022/01/02 06:55:12;;;;;;;10.40;7.88;;;;;;;10.89;63.87;95863.63;4922405;29;20052;-79
2022/01/02 06:57:38;;;;;;;13.40;8.30;;;;;;;10.96;63.27;95866.22;4946261;23;20027;-79
2022/01/02 07:00:05;;;;;;;12.38;8.65;;;;;;;11.02;63.62;95867.97;4937429;29;20047;-78
2022/01/02 07:04:58;;;;;;;15.23;10.18;;;;;;;11.02;63.38;95875.78;4926815;29;20052;-79
2022/01/02 07:07:24;;;;;;;14.02;10.30;;;;;;;11.06;63.25;95871.75;4932671;29;20043;-79
2022/01/02 07:09:49;;;;;;;10.75;7.97;;;;;;;11.02;63.28;95866.16;4947021;29;20075;-79
2022/01/02 07:12:15;;;;;;;14.25;8.65;;;;;;;11.00;63.94;95877.78;4948002;29;20043;-79
2022/01/02 07:14:40;;;;;;;12.38;9.38;;;;;;;10.95;64.04;95881.03;4948198;29;20039;-79
2022/01/02 07:17:09;;;;;;;15.90;10.57;;;;;;;10.94;63.64;95883.84;4948829;29;20044;-79
2022/01/02 07:19:41;;;;;;;17.25;10.68;;;;;;;10.97;64.38;95883.44;4930080;29;20484;-78
2022/01/02 07:22:07;;;;;;;14.50;8.98;;;;;;;10.99;64.17;95887.41;4949389;23;20457;-79
2022/01/02 07:24:33;;;;;;;11.20;8.73;;;;;;;11.02;64.22;95892.19;4939609;29;20135;-79
2022/01/02 07:26:59;;;;;;;16.27;9.73;;;;;;;11.05;63.84;95885.78;5031995;23;20048;31
2022/01/02 07:29:26;;;;;;;10.15;8.75;;;;;;;11.01;63.79;95879.41;4888977;29;20060;-77
2022/01/02 07:31:52;;;;;;;22.40;12.48;;;;;;;11.00;63.95;95890.81;5015989;23;20055;-79
2022/01/02 07:34:17;;;;;;;17.55;10.38;;;;;;;10.98;63.99;95890.22;4933739;29;20068;-80
2022/01/02 07:36:44;;;;;;;13.05;9.27;;;;;;;10.94;63.93;95889.06;4920068;29;20465;-80
2022/01/02 07:39:13;;;;;;;11.55;8.75;;;;;;;10.87;63.71;95898.66;4918286;29;20131;-80
2022/01/02 07:41:40;;;;;;;17.55;12.45;;;;;;;10.91;63.87;95905.09;4918450;29;20044;-80
2022/01/02 07:44:05;;;;;;;17.70;13.25;;;;;;;10.94;63.88;95891.66;4918425;29;20040;-80
2022/01/02 07:46:31;;;;;;;16.13;11.25;;;;;;;10.98;63.92;95896.22;4918096;29;20047;-80
2022/01/02 07:48:57;;;;;;;17.45;12.88;;;;;;;11.05;63.63;95890.97;4917235;29;20123;-80
2022/01/02 07:51:22;;;;;;;20.08;11.65;;;;;;;11.13;63.07;95898.56;4918915;29;20048;-80
2022/01/02 07:53:48;;;;;;;14.20;9.98;;;;;;;11.15;63.06;95895.75;4904536;29;20059;-80
2022/01/02 07:56:15;;;;;;;16.90;12.10;;;;;;;11.23;62.57;95893.72;4894245;29;20040;-80
2022/01/02 07:58:40;;;;;;;27.42;14.10;;;;;;;11.27;62.39;95894.88;4921151;29;20080;-80
2022/01/02 08:01:05;;;;;;;25.67;15.32;;;;;;;11.29;62.32;95897.28;4922936;29;20052;-80
2022/01/02 08:03:31;;;;;;;21.98;16.27;;;;;;;11.34;62.31;95890.41;4920325;29;20086;-80
2022/01/02 08:05:56;;;;;;;33.88;20.83;;;;;;;11.42;62.13;95892.78;4922759;29;20384;-81
2022/01/02 08:08:22;;;;;;;27.50;18.27;;;;;;;11.45;62.02;95893.38;4924198;29;20714;-81
2022/01/02 08:10:50;;;;;;;28.08;17.52;;;;;;;11.42;61.82;95882.38;4989623;23;20055;-80
2022/01/02 08:13:15;;;;;;;25.42;17.23;;;;;;;11.45;61.65;95895.97;4947805;29;20058;-80
2022/01/02 08:15:41;;;;;;;37.00;23.52;;;;;;;11.49;61.99;95892.72;4952501;29;20423;-80
2022/01/02 08:18:06;;;;;;;29.02;19.95;;;;;;;11.58;61.62;95901.91;4950594;29;20491;-80
2022/01/02 08:20:32;;;;;;;17.48;12.30;;;;;;;11.65;61.46;95901.84;4950927;29;20071;-86
2022/01/02 08:22:57;;;;;;;22.15;13.98;;;;;;;11.78;61.20;95899.16;4931732;29;20195;-79
2022/01/02 08:25:24;;;;;;;17.00;12.50;;;;;;;11.86;60.32;95904.13;4949675;29;20046;-80
2022/01/02 08:28:42;;;;;;;14.07;11.00;;;;;;;11.95;60.28;95897.63;4915280;29;20043;-79
2022/01/02 08:31:08;;;;;;;25.10;12.10;;;;;;;12.13;59.64;95894.28;4946295;29;20082;-80
2022/01/02 08:33:33;;;;;;;13.52;10.00;;;;;;;12.26;59.33;95898.56;4965597;23;20044;-80
2022/01/02 08:35:59;;;;;;;19.20;12.05;;;;;;;12.42;58.71;95892.00;4940986;29;20032;-80
2022/01/02 08:38:24;;;;;;;19.55;11.45;;;;;;;12.50;58.04;95895.09;4944148;29;20396;-80
2022/01/02 08:40:50;;;;;;;17.38;11.52;;;;;;;12.56;58.11;95891.66;4934985;29;20051;-80
2022/01/02 08:43:15;;;;;;;16.83;11.02;;;;;;;12.67;57.92;95891.91;4957911;23;20079;-80
2022/01/02 08:45:40;;;;;;;13.23;9.18;;;;;;;12.69;57.01;95887.28;4942569;29;20031;-81
2022/01/02 08:48:06;;;;;;;17.65;12.93;;;;;;;12.68;57.08;95896.13;4943993;29;20023;-80
2022/01/02 08:50:32;;;;;;;17.65;11.10;;;;;;;12.63;57.54;95897.56;4920935;29;20036;-80
2022/01/02 08:52:57;;;;;;;15.13;9.10;;;;;;;12.65;57.03;95901.78;4951111;29;20031;-83
2022/01/02 08:55:22;;;;;;;15.80;9.63;;;;;;;12.66;56.52;95898.94;4910036;23;20065;-82
2022/01/02 08:57:48;;;;;;;16.98;11.90;;;;;;;12.72;56.62;95890.28;4914751;29;20523;-82
2022/01/02 09:00:14;;;;;;;14.60;11.00;;;;;;;12.73;57.00;95901.50;4912762;29;20059;-82
2022/01/02 09:02:39;;;;;;;15.60;11.48;;;;;;;12.78;56.32;95906.84;4932919;29;20066;-81
2022/01/02 09:05:06;;;;;;;16.20;10.63;;;;;;;12.89;56.31;95903.53;4899921;29;20043;-82
2022/01/02 09:07:32;;;;;;;13.10;9.85;;;;;;;13.04;56.04;95898.72;4988033;23;20040;-81
2022/01/02 09:10:23;;;;;;;19.27;11.30;;;;;;;13.08;55.77;95886.81;4939168;29;20058;-82
2022/01/02 09:12:49;;;;;;;10.10;7.95;;;;;;;12.99;55.29;95879.50;4943688;29;20031;-80
2022/01/02 09:15:14;;;;;;;13.45;7.30;;;;;;;12.96;55.58;95883.34;4915780;29;20074;-80
2022/01/02 09:17:40;;;;;;;15.18;10.00;;;;;;;13.13;55.02;95884.31;4929540;29;20430;-78
2022/01/02 09:20:06;;;;;;;14.57;10.35;;;;;;;13.20;54.37;95892.13;4947243;29;20408;-78
2022/01/02 09:22:34;;;;;;;13.32;8.35;;;;;;;13.24;53.08;95884.63;4947201;29;20035;-79
2022/01/02 09:25:00;;;;;;;18.25;10.23;;;;;;;13.25;53.69;95878.38;4949371;29;20027;-79
2022/01/02 09:27:25;;;;;;;28.13;17.80;;;;;;;13.22;53.72;95879.63;4933564;29;20068;-79
2022/01/02 09:29:51;;;;;;;31.27;19.70;;;;;;;13.30;54.04;95878.50;4933041;29;20504;-79
2022/01/02 09:32:16;;;;;;;23.10;14.88;;;;;;;13.31;53.68;95872.25;4933563;29;20036;-79
2022/01/02 09:34:42;;;;;;;31.27;20.17;;;;;;;13.31;53.98;95861.81;4933161;29;20051;-79
2022/01/02 09:37:08;;;;;;;12.73;9.48;;;;;;;13.30;53.41;95860.22;4918651;29;20208;-80
2022/01/02 09:39:33;;;;;;;8.13;6.53;;;;;;;13.23;53.81;95862.94;4951695;29;20043;-79
2022/01/02 09:41:59;;;;;;;13.73;8.82;;;;;;;13.05;53.92;95849.91;5056072;23;20048;-79
2022/01/02 09:44:29;;;;;;;19.15;11.35;;;;;;;12.99;54.31;95843.72;4950740;29;20047;-79
2022/01/02 09:46:54;;;;;;;24.30;15.27;;;;;;;13.10;54.18;95843.00;4934066;29;20131;-79
2022/01/02 09:49:20;;;;;;;17.35;11.38;;;;;;;13.18;54.31;95837.50;4914842;29;20031;-79
2022/01/02 09:51:46;;;;;;;7.10;5.40;;;;;;;13.16;53.81;95825.63;4912844;29;20046;-79
2022/01/02 09:54:11;;;;;;;6.07;5.20;;;;;;;13.13;53.86;95829.47;4951309;29;20039;-79
2022/01/02 09:56:37;;;;;;;12.52;8.00;;;;;;;13.12;54.32;95833.13;4934640;29;20031;-79
2022/01/02 09:59:06;;;;;;;17.40;8.80;;;;;;;13.09;54.21;95825.72;4931853;29;20102;-79
2022/01/02 10:01:32;;;;;;;7.65;6.10;;;;;;;13.08;53.86;95824.13;4914987;29;20118;-79
2022/01/02 10:03:58;;;;;;;12.27;8.70;;;;;;;13.08;53.37;95824.13;4941737;29;20579;-78
2022/01/02 10:06:39;;;;;;;7.05;6.35;;;;;;;13.04;53.15;95815.16;4944191;29;20031;-78
2022/01/02 10:09:07;;;;;;;5.90;5.28;;;;;;;12.99;52.87;95820.25;4944691;29;20090;-78
2022/01/02 10:11:33;;;;;;;10.40;7.97;;;;;;;12.94;53.31;95822.72;4908783;29;20023;-78
2022/01/02 10:14:02;;;;;;;16.48;8.35;;;;;;;12.93;53.11;95821.94;4943008;29;20511;-78
2022/01/02 10:16:36;;;;;;;13.65;7.22;;;;;;;12.82;53.37;95809.63;4944383;29;20031;-78
2022/01/02 10:19:26;;;;;;;6.68;5.90;;;;;;;12.85;53.47;95817.03;4926346;29;20484;-78
2022/01/02 10:22:01;;;;;;;7.53;5.10;;;;;;;12.84;53.19;95804.97;4943880;29;20802;-78
2022/01/02 10:24:36;;;;;;;6.45;5.80;;;;;;;12.80;53.46;95805.63;5832252;23;20083;-77
2022/01/02 10:27:21;;;;;;;12.65;8.27;;;;;;;12.76;53.39;95804.50;4911885;29;20111;-77
2022/01/02 10:29:51;;;;;;;6.57;5.90;;;;;;;12.78;53.16;95799.84;4894607;29;20055;-77
2022/01/02 10:32:26;;;;;;;9.30;6.47;;;;;;;12.78;53.23;95792.03;4861918;29;20093;-77
2022/01/02 10:34:51;;;;;;;11.23;6.70;;;;;;;12.78;53.02;95792.81;4893313;29;20048;-77
2022/01/02 10:37:24;;;;;;;16.08;7.47;;;;;;;12.74;53.20;95791.66;4878326;29;20040;-78
2022/01/02 10:39:49;;;;;;;8.75;7.10;;;;;;;12.75;53.62;95790.66;4895468;29;20481;-78
2022/01/02 10:42:16;;;;;;;8.40;5.72;;;;;;;12.81;53.58;95791.56;4864030;29;20043;-78
2022/01/02 10:44:41;;;;;;;7.75;6.50;;;;;;;12.83;53.11;95784.31;4863966;29;20112;-78
2022/01/02 10:47:16;;;;;;;14.60;9.00;;;;;;;12.85;53.30;95782.28;4879535;29;20119;-78
2022/01/02 10:50:03;;;;;;;21.70;13.40;;;;;;;12.95;53.31;95771.31;4895721;29;20552;-79
2022/01/02 10:52:32;;;;;;;19.42;12.25;;;;;;;12.99;52.88;95764.63;4896609;29;20065;-78
2022/01/02 10:54:59;;;;;;;11.20;6.63;;;;;;;13.00;52.95;95763.59;4895661;29;20028;-78
2022/01/02 10:57:26;;;;;;;4.82;3.92;;;;;;;13.00;52.54;95763.59;4895803;29;20033;-79
2022/01/02 10:59:54;;;;;;;5.05;3.25;;;;;;;12.97;52.44;95770.06;4867039;29;20493;-78
2022/01/02 11:02:20;;;;;;;4.00;3.60;;;;;;;12.94;52.93;95765.28;4889040;29;20120;-79
2022/01/02 11:04:58;;;;;;;9.45;4.57;;;;;;;12.95;52.72;95761.66;4882864;29;20021;-79
2022/01/02 11:07:27;;;;;;;4.80;4.30;;;;;;;12.91;53.21;95760.53;4900168;29;20130;-78
2022/01/02 11:09:55;;;;;;;9.80;4.93;;;;;;;12.91;53.48;95760.53;4882676;29;20032;-79
2022/01/02 11:12:27;;;;;;;10.23;6.25;;;;;;;12.94;53.54;95760.06;4867168;29;20040;-78
2022/01/02 11:14:55;;;;;;;4.72;3.92;;;;;;;12.94;53.53;95757.47;4900349;29;20123;-78
2022/01/02 11:17:21;;;;;;;6.35;5.18;;;;;;;12.92;53.79;95756.88;4900136;29;20528;-78
2022/01/02 11:19:46;;;;;;;9.57;4.00;;;;;;;12.95;54.04;95751.22;4880984;29;20029;-79
2022/01/02 11:22:14;;;;;;;11.43;6.88;;;;;;;12.91;54.30;95750.06;4899622;29;20044;-79
2022/01/02 11:25:00;;;;;;;15.10;7.97;;;;;;;12.90;54.09;95738.84;4898055;29;20071;-80
2022/01/02 11:27:33;;;;;;;9.48;4.25;;;;;;;12.78;53.70;95735.41;4867808;29;20033;-79
2022/01/02 11:30:22;;;;;;;5.00;3.83;;;;;;;12.82;53.54;95730.53;4883750;29;20482;-79
2022/01/02 11:33:03;;;;;;;3.20;3.00;;;;;;;12.74;53.37;95723.03;4898186;29;20032;-79
2022/01/02 11:35:31;;;;;;;4.90;3.10;;;;;;;12.66;54.07;95725.94;4914512;29;20092;-78
2022/01/02 11:38:02;;;;;;;7.30;3.22;;;;;;;12.66;53.82;95725.94;4916439;29;20032;-79